Terminal Aerodrome Forecast
Issued by NWS

Home | Current Version | Previous Version | Text Only | Print | Product List | Glossary On
Versions: 1 2 3 4 5 6 7 8 9 10 11 12 13 14 15 16 17 18 19 20 21 22 23 24 25 26 27
000
FTUS42 KMFL 241728
TAFOPF
TAF
KOPF 241728Z 2418/2518 10008KT P6SM SHRA VCTS SCT025CB BKN040
     FM242200 15006KT P6SM VCSH FEW025 BKN060
     FM250000 VRB03KT P6SM SCT250
     FM251400 13008KT P6SM SCT035=

USA.gov is the U.S. government's official web portal to all federal, state and local government web resources and services.